sensor_id;sensor_type;location;lat;lon;timestamp;pressure;altitude;pressure_sealevel;temperature;humidity
17209;BME280;8720;48.488;9.202;2023-03-26T00:01:25;96561.31;;;12.91;49.49
17209;BME280;8720;48.488;9.202;2023-03-26T00:03:55;96568.41;;;12.89;49.54
17209;BME280;8720;48.488;9.202;2023-03-26T00:06:25;96577.31;;;12.85;49.64
17209;BME280;8720;48.488;9.202;2023-03-26T00:08:55;96583.59;;;12.80;49.73
17209;BME280;8720;48.488;9.202;2023-03-26T00:11:27;96575.88;;;12.77;49.92
17209;BME280;8720;48.488;9.202;2023-03-26T00:13:55;96575.06;;;12.75;49.82
17209;BME280;8720;48.488;9.202;2023-03-26T00:16:27;96575.06;;;12.75;49.87
17209;BME280;8720;48.488;9.202;2023-03-26T00:18:56;96578.50;;;12.77;49.96
17209;BME280;8720;48.488;9.202;2023-03-26T00:21:25;96574.03;;;12.79;50.07
17209;BME280;8720;48.488;9.202;2023-03-26T00:23:54;96582.69;;;12.82;50.05
17209;BME280;8720;48.488;9.202;2023-03-26T00:26:27;96576.50;;;12.84;49.86
17209;BME280;8720;48.488;9.202;2023-03-26T00:28:57;96572.88;;;12.87;50.15
17209;BME280;8720;48.488;9.202;2023-03-26T00:31:26;96576.28;;;12.89;50.00
17209;BME280;8720;48.488;9.202;2023-03-26T00:33:53;96568.34;;;12.90;49.78
17209;BME280;8720;48.488;9.202;2023-03-26T00:36:23;96576.91;;;12.95;50.09
17209;BME280;8720;48.488;9.202;2023-03-26T00:38:51;96577.69;;;12.97;49.83
17209;BME280;8720;48.488;9.202;2023-03-26T00:41:21;96571.75;;;12.92;50.22
17209;BME280;8720;48.488;9.202;2023-03-26T00:43:54;96576.84;;;12.97;49.93
17209;BME280;8720;48.488;9.202;2023-03-26T00:46:23;96573.47;;;12.93;50.03
17209;BME280;8720;48.488;9.202;2023-03-26T00:48:51;96569.19;;;12.91;49.94
17209;BME280;8720;48.488;9.202;2023-03-26T00:51:20;96566.56;;;12.91;50.00
17209;BME280;8720;48.488;9.202;2023-03-26T00:53:49;96563.09;;;12.90;50.06
17209;BME280;8720;48.488;9.202;2023-03-26T00:56:18;96561.41;;;12.89;50.10
17209;BME280;8720;48.488;9.202;2023-03-26T00:58:45;96553.59;;;12.88;50.01
17209;BME280;8720;48.488;9.202;2023-03-26T01:01:21;96554.50;;;12.87;50.20
17209;BME280;8720;48.488;9.202;2023-03-26T01:03:53;96547.63;;;12.84;49.97
17209;BME280;8720;48.488;9.202;2023-03-26T01:06:27;96541.88;;;12.74;50.06
17209;BME280;8720;48.488;9.202;2023-03-26T01:09:03;96554.13;;;12.74;50.19
17209;BME280;8720;48.488;9.202;2023-03-26T01:11:33;96556.13;;;12.67;50.21
17209;BME280;8720;48.488;9.202;2023-03-26T01:14:06;96553.66;;;12.64;50.22
17209;BME280;8720;48.488;9.202;2023-03-26T01:16:43;96532.97;;;12.57;50.04
17209;BME280;8720;48.488;9.202;2023-03-26T01:19:18;96532.97;;;12.57;50.39
17209;BME280;8720;48.488;9.202;2023-03-26T01:21:48;96530.38;;;12.55;50.43
17209;BME280;8720;48.488;9.202;2023-03-26T01:24:17;96503.78;;;12.43;50.51
17209;BME280;8720;48.488;9.202;2023-03-26T01:27:03;96518.19;;;12.54;50.34
17209;BME280;8720;48.488;9.202;2023-03-26T01:29:41;96508.66;;;12.52;50.24
17209;BME280;8720;48.488;9.202;2023-03-26T01:32:23;96505.97;;;12.53;50.40
17209;BME280;8720;48.488;9.202;2023-03-26T01:35:08;96499.88;;;12.53;50.24
17209;BME280;8720;48.488;9.202;2023-03-26T01:37:52;96495.53;;;12.52;50.28
17209;BME280;8720;48.488;9.202;2023-03-26T01:40:30;96508.56;;;12.55;50.29
17209;BME280;8720;48.488;9.202;2023-03-26T01:43:13;96488.34;;;12.57;50.22
17209;BME280;8720;48.488;9.202;2023-03-26T01:45:45;96477.00;;;12.56;50.32
17209;BME280;8720;48.488;9.202;2023-03-26T01:48:14;96483.03;;;12.58;50.17
17209;BME280;8720;48.488;9.202;2023-03-26T01:50:42;96466.38;;;12.59;50.16
17209;BME280;8720;48.488;9.202;2023-03-26T01:53:12;96460.16;;;12.62;50.11
17209;BME280;8720;48.488;9.202;2023-03-26T01:55:54;96457.53;;;12.62;50.07
17209;BME280;8720;48.488;9.202;2023-03-26T01:58:34;96448.75;;;12.63;50.02
17209;BME280;8720;48.488;9.202;2023-03-26T02:03:46;96452.88;;;12.68;49.99
17209;BME280;8720;48.488;9.202;2023-03-26T02:06:22;96446.63;;;12.71;49.84
17209;BME280;8720;48.488;9.202;2023-03-26T02:09:01;96437.88;;;12.72;49.86
17209;BME280;8720;48.488;9.202;2023-03-26T02:11:31;96425.59;;;12.72;49.88
17209;BME280;8720;48.488;9.202;2023-03-26T02:13:59;96420.34;;;12.72;49.84
17209;BME280;8720;48.488;9.202;2023-03-26T02:16:26;96412.47;;;12.72;49.85
17209;BME280;8720;48.488;9.202;2023-03-26T02:18:53;96416.72;;;12.75;49.96
17209;BME280;8720;48.488;9.202;2023-03-26T02:21:25;96407.94;;;12.76;49.87
17209;BME280;8720;48.488;9.202;2023-03-26T02:23:55;96403.41;;;12.79;49.92
17209;BME280;8720;48.488;9.202;2023-03-26T02:26:32;96393.78;;;12.80;49.82
17209;BME280;8720;48.488;9.202;2023-03-26T02:29:10;96399.84;;;12.80;49.82
17209;BME280;8720;48.488;9.202;2023-03-26T02:31:40;96391.09;;;12.82;49.72
17209;BME280;8720;48.488;9.202;2023-03-26T02:34:08;96386.69;;;12.82;49.67
17209;BME280;8720;48.488;9.202;2023-03-26T02:36:39;96392.78;;;12.82;49.86
17209;BME280;8720;48.488;9.202;2023-03-26T02:39:09;96381.56;;;12.79;49.71
17209;BME280;8720;48.488;9.202;2023-03-26T02:41:39;96375.34;;;12.82;49.82
17209;BME280;8720;48.488;9.202;2023-03-26T02:44:09;96372.63;;;12.83;49.92
17209;BME280;8720;48.488;9.202;2023-03-26T02:46:57;96370.81;;;12.85;49.70
17209;BME280;8720;48.488;9.202;2023-03-26T02:49:43;96363.00;;;12.84;50.03
17209;BME280;8720;48.488;9.202;2023-03-26T02:52:16;96362.84;;;12.87;49.76
17209;BME280;8720;48.488;9.202;2023-03-26T02:54:45;96354.91;;;12.88;49.92
17209;BME280;8720;48.488;9.202;2023-03-26T02:57:22;96339.31;;;12.85;49.90
17209;BME280;8720;48.488;9.202;2023-03-26T03:00:15;96323.63;;;12.84;49.83
17209;BME280;8720;48.488;9.202;2023-03-26T03:03:18;96328.53;;;12.91;49.82
17209;BME280;8720;48.488;9.202;2023-03-26T03:06:09;96322.31;;;12.94;49.71
17209;BME280;8720;48.488;9.202;2023-03-26T03:08:44;96311.81;;;12.94;49.71
17209;BME280;8720;48.488;9.202;2023-03-26T03:11:39;96307.47;;;12.93;49.80
17209;BME280;8720;48.488;9.202;2023-03-26T03:14:09;96308.25;;;12.95;49.77
17209;BME280;8720;48.488;9.202;2023-03-26T03:16:37;96295.91;;;12.97;49.68
17209;BME280;8720;48.488;9.202;2023-03-26T03:19:07;96293.13;;;13.00;49.65
17209;BME280;8720;48.488;9.202;2023-03-26T03:21:37;96293.97;;;13.00;49.62
17209;BME280;8720;48.488;9.202;2023-03-26T03:24:06;96293.91;;;13.02;49.59
17209;BME280;8720;48.488;9.202;2023-03-26T03:26:38;96286.03;;;13.03;49.57
17209;BME280;8720;48.488;9.202;2023-03-26T03:29:27;96287.72;;;13.04;49.56
17209;BME280;8720;48.488;9.202;2023-03-26T03:31:57;96282.38;;;13.06;49.64
17209;BME280;8720;48.488;9.202;2023-03-26T03:34:43;96284.09;;;13.07;49.59
17209;BME280;8720;48.488;9.202;2023-03-26T03:37:11;96280.41;;;13.11;49.57
17209;BME280;8720;48.488;9.202;2023-03-26T03:39:44;96272.47;;;13.12;49.51
17209;BME280;8720;48.488;9.202;2023-03-26T03:42:16;96267.41;;;13.08;49.58
17209;BME280;8720;48.488;9.202;2023-03-26T03:44:45;96248.66;;;13.15;49.46
17209;BME280;8720;48.488;9.202;2023-03-26T03:47:31;96244.44;;;13.13;49.43
17209;BME280;8720;48.488;9.202;2023-03-26T03:49:59;96259.97;;;13.17;49.35
17209;BME280;8720;48.488;9.202;2023-03-26T03:52:27;96267.00;;;13.17;49.45
17209;BME280;8720;48.488;9.202;2023-03-26T03:54:57;96261.81;;;13.15;49.51
17209;BME280;8720;48.488;9.202;2023-03-26T03:57:39;96254.84;;;13.14;49.36
17209;BME280;8720;48.488;9.202;2023-03-26T04:00:15;96259.19;;;13.15;49.32
17209;BME280;8720;48.488;9.202;2023-03-26T04:02:42;96246.13;;;13.14;49.40
17209;BME280;8720;48.488;9.202;2023-03-26T04:05:11;96242.59;;;13.15;49.37
17209;BME280;8720;48.488;9.202;2023-03-26T04:07:45;96226.84;;;13.15;49.32
17209;BME280;8720;48.488;9.202;2023-03-26T04:10:27;96219.25;;;13.09;49.18
17209;BME280;8720;48.488;9.202;2023-03-26T04:13:23;96214.59;;;13.14;49.21
17209;BME280;8720;48.488;9.202;2023-03-26T04:16:06;96216.34;;;13.15;49.16
17209;BME280;8720;48.488;9.202;2023-03-26T04:18:34;96211.91;;;13.15;49.21
17209;BME280;8720;48.488;9.202;2023-03-26T04:21:09;96208.22;;;13.19;49.22
17209;BME280;8720;48.488;9.202;2023-03-26T04:23:38;96212.56;;;13.20;49.42
17209;BME280;8720;48.488;9.202;2023-03-26T04:26:19;96202.84;;;13.22;49.12
17209;BME280;8720;48.488;9.202;2023-03-26T04:29:17;96208.16;;;13.21;49.19
17209;BME280;8720;48.488;9.202;2023-03-26T04:31:49;96203.63;;;13.24;49.06
17209;BME280;8720;48.488;9.202;2023-03-26T04:34:24;96194.72;;;13.27;48.89
17209;BME280;8720;48.488;9.202;2023-03-26T04:37:14;96201.59;;;13.29;48.90
17209;BME280;8720;48.488;9.202;2023-03-26T04:39:49;96203.25;;;13.32;49.04
17209;BME280;8720;48.488;9.202;2023-03-26T04:42:33;96191.81;;;13.33;49.00
17209;BME280;8720;48.488;9.202;2023-03-26T04:45:14;96172.41;;;13.35;48.79
17209;BME280;8720;48.488;9.202;2023-03-26T04:47:46;96180.13;;;13.38;48.80
17209;BME280;8720;48.488;9.202;2023-03-26T04:50:15;96173.97;;;13.39;48.68
17209;BME280;8720;48.488;9.202;2023-03-26T04:52:43;96162.47;;;13.42;48.66
17209;BME280;8720;48.488;9.202;2023-03-26T04:55:52;96149.38;;;13.40;48.49
17209;BME280;8720;48.488;9.202;2023-03-26T04:58:41;96155.50;;;13.41;48.62
17209;BME280;8720;48.488;9.202;2023-03-26T05:01:09;96150.25;;;13.41;48.29
17209;BME280;8720;48.488;9.202;2023-03-26T05:03:39;96156.28;;;13.43;48.33
17209;BME280;8720;48.488;9.202;2023-03-26T05:06:12;96158.00;;;13.44;48.29
17209;BME280;8720;48.488;9.202;2023-03-26T05:08:40;96158.75;;;13.46;48.25
17209;BME280;8720;48.488;9.202;2023-03-26T05:11:11;96159.66;;;13.81;46.83
17209;BME280;8720;48.488;9.202;2023-03-26T05:13:38;96155.53;;;13.75;47.19
17209;BME280;8720;48.488;9.202;2023-03-26T05:16:10;96153.28;;;13.67;47.30
17209;BME280;8720;48.488;9.202;2023-03-26T05:18:48;96156.84;;;13.66;47.57
17209;BME280;8720;48.488;9.202;2023-03-26T05:21:17;96159.41;;;13.68;47.47
17209;BME280;8720;48.488;9.202;2023-03-26T05:23:45;96139.16;;;13.70;47.13
17209;BME280;8720;48.488;9.202;2023-03-26T05:26:18;96134.59;;;13.74;46.88
17209;BME280;8720;48.488;9.202;2023-03-26T05:28:45;96118.59;;;13.78;46.68
17209;BME280;8720;48.488;9.202;2023-03-26T05:31:22;96135.91;;;13.82;46.51
17209;BME280;8720;48.488;9.202;2023-03-26T05:33:55;96118.03;;;13.89;46.29
17209;BME280;8720;48.488;9.202;2023-03-26T05:36:23;96110.78;;;13.94;46.40
17209;BME280;8720;48.488;9.202;2023-03-26T05:39:07;96109.69;;;13.98;46.05
17209;BME280;8720;48.488;9.202;2023-03-26T05:41:52;96099.94;;;14.00;46.07
17209;BME280;8720;48.488;9.202;2023-03-26T05:44:25;96097.22;;;14.01;46.11
17209;BME280;8720;48.488;9.202;2023-03-26T05:46:53;96085.72;;;14.04;46.03
17209;BME280;8720;48.488;9.202;2023-03-26T05:49:25;96075.88;;;14.07;46.07
17209;BME280;8720;48.488;9.202;2023-03-26T05:51:54;96076.63;;;14.09;45.82
17209;BME280;8720;48.488;9.202;2023-03-26T05:54:53;96083.59;;;14.10;45.79
17209;BME280;8720;48.488;9.202;2023-03-26T05:57:39;96068.75;;;14.09;45.88
17209;BME280;8720;48.488;9.202;2023-03-26T06:00:27;96073.25;;;14.07;46.18
17209;BME280;8720;48.488;9.202;2023-03-26T06:02:56;96073.06;;;14.10;46.08
17209;BME280;8720;48.488;9.202;2023-03-26T06:05:24;96066.03;;;14.11;46.13
17209;BME280;8720;48.488;9.202;2023-03-26T06:08:06;96052.97;;;14.09;46.21
17209;BME280;8720;48.488;9.202;2023-03-26T06:10:37;96045.06;;;14.09;46.02
17209;BME280;8720;48.488;9.202;2023-03-26T06:13:05;96037.25;;;14.08;46.15
17209;BME280;8720;48.488;9.202;2023-03-26T06:15:35;96045.13;;;14.08;46.17
17209;BME280;8720;48.488;9.202;2023-03-26T06:18:13;96043.44;;;14.07;46.06
17209;BME280;8720;48.488;9.202;2023-03-26T06:21:00;96035.75;;;14.04;46.15
17209;BME280;8720;48.488;9.202;2023-03-26T06:23:41;96033.16;;;14.02;46.19
17209;BME280;8720;48.488;9.202;2023-03-26T06:26:50;96027.13;;;14.00;46.34
17209;BME280;8720;48.488;9.202;2023-03-26T06:29:26;96027.91;;;14.02;46.30
17209;BME280;8720;48.488;9.202;2023-03-26T06:32:10;96023.50;;;14.03;46.33
17209;BME280;8720;48.488;9.202;2023-03-26T06:34:57;96008.66;;;14.02;46.43
17209;BME280;8720;48.488;9.202;2023-03-26T06:37:26;96006.19;;;13.99;46.73
17209;BME280;8720;48.488;9.202;2023-03-26T06:39:58;96007.28;;;13.95;46.93
17209;BME280;8720;48.488;9.202;2023-03-26T06:42:44;95999.81;;;13.87;47.05
17209;BME280;8720;48.488;9.202;2023-03-26T06:45:41;95994.78;;;13.83;47.38
17209;BME280;8720;48.488;9.202;2023-03-26T06:48:41;95988.06;;;13.77;47.59
17209;BME280;8720;48.488;9.202;2023-03-26T06:51:29;95981.97;;;13.77;47.47
17209;BME280;8720;48.488;9.202;2023-03-26T06:54:17;95969.06;;;13.72;47.42
17209;BME280;8720;48.488;9.202;2023-03-26T06:57:07;95966.53;;;13.71;47.76
17209;BME280;8720;48.488;9.202;2023-03-26T06:59:35;95964.72;;;13.71;47.81
17209;BME280;8720;48.488;9.202;2023-03-26T07:02:20;95950.00;;;13.68;47.92
17209;BME280;8720;48.488;9.202;2023-03-26T07:05:07;95953.63;;;13.66;48.10
17209;BME280;8720;48.488;9.202;2023-03-26T07:07:52;95949.31;;;13.65;47.95
17209;BME280;8720;48.488;9.202;2023-03-26T07:10:39;95941.44;;;13.65;48.10
17209;BME280;8720;48.488;9.202;2023-03-26T07:13:24;95949.22;;;13.66;48.32
17209;BME280;8720;48.488;9.202;2023-03-26T07:16:14;95944.81;;;13.67;48.44
17209;BME280;8720;48.488;9.202;2023-03-26T07:18:56;95930.75;;;13.68;48.43
17209;BME280;8720;48.488;9.202;2023-03-26T07:21:30;95929.75;;;13.71;48.51
17209;BME280;8720;48.488;9.202;2023-03-26T07:23:58;95917.41;;;13.71;48.63
17209;BME280;8720;48.488;9.202;2023-03-26T07:26:52;95925.41;;;13.69;48.84
17209;BME280;8720;48.488;9.202;2023-03-26T07:29:33;95911.50;;;13.67;48.98
17209;BME280;8720;48.488;9.202;2023-03-26T07:32:28;95901.31;;;13.61;49.25
17209;BME280;8720;48.488;9.202;2023-03-26T07:35:18;95902.34;;;13.59;49.35
17209;BME280;8720;48.488;9.202;2023-03-26T07:38:19;95892.16;;;13.53;49.37
17209;BME280;8720;48.488;9.202;2023-03-26T07:41:11;95875.84;;;13.46;49.59
17209;BME280;8720;48.488;9.202;2023-03-26T07:44:37;95888.47;;;13.40;49.55
17209;BME280;8720;48.488;9.202;2023-03-26T07:47:35;95862.34;;;13.37;49.95
17209;BME280;8720;48.488;9.202;2023-03-26T07:50:26;95853.56;;;13.38;50.20
17209;BME280;8720;48.488;9.202;2023-03-26T07:53:08;95849.84;;;13.42;50.13
17209;BME280;8720;48.488;9.202;2023-03-26T07:55:56;95841.69;;;13.46;50.22
17209;BME280;8720;48.488;9.202;2023-03-26T07:58:52;95834.56;;;13.48;50.17
17209;BME280;8720;48.488;9.202;2023-03-26T08:02:14;95826.69;;;13.48;50.10
17209;BME280;8720;48.488;9.202;2023-03-26T08:05:04;95823.97;;;13.50;50.35
17209;BME280;8720;48.488;9.202;2023-03-26T08:08:13;95828.41;;;13.49;50.42
17209;BME280;8720;48.488;9.202;2023-03-26T08:11:11;95824.84;;;13.50;50.58
17209;BME280;8720;48.488;9.202;2023-03-26T08:14:10;95831.84;;;13.50;50.71
17209;BME280;8720;48.488;9.202;2023-03-26T08:16:50;95836.19;;;13.51;50.75
17209;BME280;8720;48.488;9.202;2023-03-26T08:19:43;95819.09;;;13.44;51.01
17209;BME280;8720;48.488;9.202;2023-03-26T08:22:18;95824.50;;;13.41;51.13
17209;BME280;8720;48.488;9.202;2023-03-26T08:28:09;95838.97;;;13.48;51.20
17209;BME280;8720;48.488;9.202;2023-03-26T08:30:40;95840.69;;;13.49;51.23
17209;BME280;8720;48.488;9.202;2023-03-26T08:33:13;95841.47;;;13.51;51.38
17209;BME280;8720;48.488;9.202;2023-03-26T08:35:45;95842.22;;;13.53;51.65
17209;BME280;8720;48.488;9.202;2023-03-26T08:38:16;95843.75;;;13.57;51.78
17209;BME280;8720;48.488;9.202;2023-03-26T08:41:51;95823.31;;;13.62;51.23
17209;BME280;8720;48.488;9.202;2023-03-26T08:48:42;95842.31;;;13.67;51.77
17209;BME280;8720;48.488;9.202;2023-03-26T08:58:56;95831.44;;;13.73;52.19
17209;BME280;8720;48.488;9.202;2023-03-26T09:12:34;95858.50;;;13.91;52.84
17209;BME280;8720;48.488;9.202;2023-03-26T09:19:18;95851.38;;;14.08;53.43
17209;BME280;8720;48.488;9.202;2023-03-26T09:22:29;95849.34;;;14.29;53.73
17209;BME280;8720;48.488;9.202;2023-03-26T09:25:52;95849.41;;;14.73;53.94
17209;BME280;8720;48.488;9.202;2023-03-26T09:32:26;95834.78;;;15.11;53.78
17209;BME280;8720;48.488;9.202;2023-03-26T09:35:49;95838.56;;;15.35;53.94
17209;BME280;8720;48.488;9.202;2023-03-26T09:38:44;95830.97;;;15.59;53.96
17209;BME280;8720;48.488;9.202;2023-03-26T09:41:34;95826.03;;;15.81;53.99
17209;BME280;8720;48.488;9.202;2023-03-26T09:45:02;95849.91;;;16.06;54.08
17209;BME280;8720;48.488;9.202;2023-03-26T09:48:06;95835.72;;;16.21;53.72
17209;BME280;8720;48.488;9.202;2023-03-26T09:50:59;95851.59;;;16.33;53.31
17209;BME280;8720;48.488;9.202;2023-03-26T09:53:56;95852.44;;;16.34;53.18
17209;BME280;8720;48.488;9.202;2023-03-26T09:56:42;95847.47;;;16.29;52.46
17209;BME280;8720;48.488;9.202;2023-03-26T09:59:41;95844.69;;;16.18;51.91
17209;BME280;8720;48.488;9.202;2023-03-26T10:02:43;95830.59;;;16.05;51.91
17209;BME280;8720;48.488;9.202;2023-03-26T10:05:58;95833.34;;;15.90;51.85
17209;BME280;8720;48.488;9.202;2023-03-26T10:08:47;95847.63;;;15.73;51.56
17209;BME280;8720;48.488;9.202;2023-03-26T10:11:25;95846.78;;;15.59;51.76
17209;BME280;8720;48.488;9.202;2023-03-26T10:14:09;95841.59;;;15.43;52.02
17209;BME280;8720;48.488;9.202;2023-03-26T10:16:57;95837.91;;;15.31;51.62
17209;BME280;8720;48.488;9.202;2023-03-26T10:19:54;95846.09;;;15.13;52.11
17209;BME280;8720;48.488;9.202;2023-03-26T10:22:42;95858.78;;;15.06;51.98
17209;BME280;8720;48.488;9.202;2023-03-26T10:28:30;95869.06;;;14.81;51.97
17209;BME280;8720;48.488;9.202;2023-03-26T10:37:11;95844.53;;;14.51;52.58
17209;BME280;8720;48.488;9.202;2023-03-26T10:40:17;95862.44;;;14.60;52.67
17209;BME280;8720;48.488;9.202;2023-03-26T10:43:47;95855.69;;;14.70;53.29
17209;BME280;8720;48.488;9.202;2023-03-26T10:50:15;95850.88;;;14.92;53.77
17209;BME280;8720;48.488;9.202;2023-03-26T10:52:52;95853.50;;;15.06;54.18
17209;BME280;8720;48.488;9.202;2023-03-26T10:55:29;95854.56;;;15.18;53.96
17209;BME280;8720;48.488;9.202;2023-03-26T10:58:04;95847.22;;;15.23;53.58
17209;BME280;8720;48.488;9.202;2023-03-26T11:00:43;95861.75;;;15.44;53.67
17209;BME280;8720;48.488;9.202;2023-03-26T11:03:40;95852.81;;;15.61;53.49
17209;BME280;8720;48.488;9.202;2023-03-26T11:06:29;95851.00;;;15.75;52.37
17209;BME280;8720;48.488;9.202;2023-03-26T11:09:10;95856.94;;;15.79;51.82
17209;BME280;8720;48.488;9.202;2023-03-26T11:11:49;95864.75;;;15.80;51.11
17209;BME280;8720;48.488;9.202;2023-03-26T11:14:26;95863.72;;;15.83;51.20
17209;BME280;8720;48.488;9.202;2023-03-26T11:17:04;95877.28;;;15.91;51.42
17209;BME280;8720;48.488;9.202;2023-03-26T11:19:46;95871.59;;;15.97;51.20
17209;BME280;8720;48.488;9.202;2023-03-26T11:22:27;95880.94;;;16.02;51.24
17209;BME280;8720;48.488;9.202;2023-03-26T11:25:25;95871.84;;;16.06;51.18
17209;BME280;8720;48.488;9.202;2023-03-26T11:28:07;95877.78;;;16.10;50.96
17209;BME280;8720;48.488;9.202;2023-03-26T11:30:45;95870.31;;;16.16;51.05
17209;BME280;8720;48.488;9.202;2023-03-26T11:33:21;95871.72;;;16.22;50.99
17209;BME280;8720;48.488;9.202;2023-03-26T11:35:56;95858.88;;;16.30;50.95
17209;BME280;8720;48.488;9.202;2023-03-26T11:38:32;95864.63;;;16.36;51.03
17209;BME280;8720;48.488;9.202;2023-03-26T11:41:10;95850.66;;;16.49;50.84
17209;BME280;8720;48.488;9.202;2023-03-26T11:44:02;95852.56;;;16.59;50.61
17209;BME280;8720;48.488;9.202;2023-03-26T11:46:35;95853.66;;;16.69;50.41
17209;BME280;8720;48.488;9.202;2023-03-26T11:49:08;95846.16;;;16.76;50.29
17209;BME280;8720;48.488;9.202;2023-03-26T11:51:40;95849.34;;;16.81;49.96
17209;BME280;8720;48.488;9.202;2023-03-26T11:54:11;95842.19;;;16.83;49.84
17209;BME280;8720;48.488;9.202;2023-03-26T11:56:46;95845.66;;;16.83;49.84
17209;BME280;8720;48.488;9.202;2023-03-26T11:59:18;95837.00;;;16.81;49.69
17209;BME280;8720;48.488;9.202;2023-03-26T12:01:50;95836.16;;;16.81;49.66
17209;BME280;8720;48.488;9.202;2023-03-26T12:04:24;95838.78;;;16.81;49.31
17209;BME280;8720;48.488;9.202;2023-03-26T12:06:57;95830.13;;;16.79;49.53
17209;BME280;8720;48.488;9.202;2023-03-26T12:09:25;95826.50;;;16.80;49.44
17209;BME280;8720;48.488;9.202;2023-03-26T12:11:59;95827.19;;;16.83;49.24
17209;BME280;8720;48.488;9.202;2023-03-26T12:14:30;95820.63;;;16.89;49.69
17209;BME280;8720;48.488;9.202;2023-03-26T12:17:02;95823.56;;;16.97;49.62
17209;BME280;8720;48.488;9.202;2023-03-26T12:19:39;95819.59;;;17.04;49.40
17209;BME280;8720;48.488;9.202;2023-03-26T12:22:29;95805.09;;;17.09;49.69
17209;BME280;8720;48.488;9.202;2023-03-26T12:25:13;95795.59;;;17.19;48.50
17209;BME280;8720;48.488;9.202;2023-03-26T12:27:44;95794.09;;;17.28;48.11
17209;BME280;8720;48.488;9.202;2023-03-26T12:30:21;95793.47;;;17.37;48.35
17209;BME280;8720;48.488;9.202;2023-03-26T12:32:56;95791.00;;;17.47;47.87
17209;BME280;8720;48.488;9.202;2023-03-26T12:35:27;95785.09;;;17.56;47.62
17209;BME280;8720;48.488;9.202;2023-03-26T12:38:19;95787.09;;;17.65;47.64
17209;BME280;8720;48.488;9.202;2023-03-26T12:40:48;95776.69;;;17.74;46.83
17209;BME280;8720;48.488;9.202;2023-03-26T12:43:27;95769.56;;;17.87;46.53
17209;BME280;8720;48.488;9.202;2023-03-26T12:45:57;95764.53;;;17.95;45.99
17209;BME280;8720;48.488;9.202;2023-03-26T12:48:25;95763.91;;;18.04;45.61
17209;BME280;8720;48.488;9.202;2023-03-26T12:51:06;95755.38;;;18.12;45.69
17209;BME280;8720;48.488;9.202;2023-03-26T12:54:06;95745.09;;;18.20;45.31
17209;BME280;8720;48.488;9.202;2023-03-26T12:56:47;95745.69;;;18.24;45.14
17209;BME280;8720;48.488;9.202;2023-03-26T12:59:38;95742.97;;;18.36;44.79
17209;BME280;8720;48.488;9.202;2023-03-26T13:02:51;95756.38;;;18.46;45.11
17209;BME280;8720;48.488;9.202;2023-03-26T13:06:04;95737.91;;;18.57;44.96
17209;BME280;8720;48.488;9.202;2023-03-26T13:09:06;95737.94;;;18.68;44.30
17209;BME280;8720;48.488;9.202;2023-03-26T13:11:53;95737.09;;;18.78;43.55
17209;BME280;8720;48.488;9.202;2023-03-26T13:14:53;95730.13;;;18.88;43.80
17209;BME280;8720;48.488;9.202;2023-03-26T13:17:29;95730.13;;;18.99;43.22
17209;BME280;8720;48.488;9.202;2023-03-26T13:20:05;95708.84;;;19.12;42.67
17209;BME280;8720;48.488;9.202;2023-03-26T13:22:49;95696.06;;;19.28;42.89
17209;BME280;8720;48.488;9.202;2023-03-26T13:25:34;95689.94;;;19.39;41.78
17209;BME280;8720;48.488;9.202;2023-03-26T13:28:23;95689.31;;;19.46;41.48
17209;BME280;8720;48.488;9.202;2023-03-26T13:31:04;95700.41;;;19.51;41.18
17209;BME280;8720;48.488;9.202;2023-03-26T13:33:45;95699.31;;;19.54;40.67
17209;BME280;8720;48.488;9.202;2023-03-26T13:36:28;95694.38;;;19.49;40.18
17209;BME280;8720;48.488;9.202;2023-03-26T13:39:11;95692.94;;;19.45;39.94
17209;BME280;8720;48.488;9.202;2023-03-26T13:45:00;95694.75;;;19.34;40.41
17209;BME280;8720;48.488;9.202;2023-03-26T13:47:34;95700.88;;;19.34;40.45
17209;BME280;8720;48.488;9.202;2023-03-26T13:50:12;95687.13;;;19.29;40.08
17209;BME280;8720;48.488;9.202;2023-03-26T13:52:48;95706.44;;;19.20;40.57
17209;BME280;8720;48.488;9.202;2023-03-26T13:55:28;95697.25;;;19.13;41.08
17209;BME280;8720;48.488;9.202;2023-03-26T13:58:03;95703.28;;;19.04;41.09
17209;BME280;8720;48.488;9.202;2023-03-26T14:00:49;95687.13;;;18.96;41.49
17209;BME280;8720;48.488;9.202;2023-03-26T14:03:28;95686.19;;;18.97;41.52
17209;BME280;8720;48.488;9.202;2023-03-26T14:06:03;95671.59;;;19.02;41.42
17209;BME280;8720;48.488;9.202;2023-03-26T14:08:41;95674.25;;;19.14;41.06
17209;BME280;8720;48.488;9.202;2023-03-26T14:11:16;95673.88;;;19.18;40.58
17209;BME280;8720;48.488;9.202;2023-03-26T14:13:53;95676.28;;;19.21;40.73
17209;BME280;8720;48.488;9.202;2023-03-26T14:16:26;95660.16;;;19.24;39.99
17209;BME280;8720;48.488;9.202;2023-03-26T14:19:19;95657.38;;;19.26;40.43
17209;BME280;8720;48.488;9.202;2023-03-26T14:22:11;95663.25;;;19.29;40.21
17209;BME280;8720;48.488;9.202;2023-03-26T14:25:06;95663.03;;;19.32;40.04
17209;BME280;8720;48.488;9.202;2023-03-26T14:28:01;95657.72;;;19.32;39.72
17209;BME280;8720;48.488;9.202;2023-03-26T14:31:04;95660.38;;;19.32;39.42
17209;BME280;8720;48.488;9.202;2023-03-26T14:34:09;95655.31;;;19.29;39.67
17209;BME280;8720;48.488;9.202;2023-03-26T14:37:30;95661.59;;;19.28;39.98
17209;BME280;8720;48.488;9.202;2023-03-26T14:40:47;95670.28;;;19.30;40.12
17209;BME280;8720;48.488;9.202;2023-03-26T14:43:59;95676.28;;;19.32;39.40
17209;BME280;8720;48.488;9.202;2023-03-26T14:46:55;95679.03;;;19.31;38.83
17209;BME280;8720;48.488;9.202;2023-03-26T14:52:49;95687.16;;;19.07;38.26
17209;BME280;8720;48.488;9.202;2023-03-26T14:55:41;95692.56;;;18.94;37.97
17209;BME280;8720;48.488;9.202;2023-03-26T14:58:59;95693.97;;;18.76;38.56
17209;BME280;8720;48.488;9.202;2023-03-26T15:02:22;95714.88;;;18.57;38.74
17209;BME280;8720;48.488;9.202;2023-03-26T15:05:46;95707.59;;;18.37;39.22
17209;BME280;8720;48.488;9.202;2023-03-26T15:11:54;95713.97;;;18.11;38.62
17209;BME280;8720;48.488;9.202;2023-03-26T15:22:03;95695.03;;;17.70;39.94
17209;BME280;8720;48.488;9.202;2023-03-26T15:32:36;95737.94;;;17.24;40.65
17209;BME280;8720;48.488;9.202;2023-03-26T15:35:36;95744.53;;;17.06;41.03
17209;BME280;8720;48.488;9.202;2023-03-26T15:41:25;95770.50;;;16.50;42.34
17209;BME280;8720;48.488;9.202;2023-03-26T15:44:26;95777.97;;;16.16;42.37